createdAt,value
2018-09-21T00:00:48.079Z,63.00
2018-09-21T00:04:21.314Z,63.20
2018-09-21T00:07:54.534Z,63.30
2018-09-21T00:11:27.748Z,63.50
2018-09-21T00:15:00.983Z,63.70
2018-09-21T00:18:34.187Z,64.00
2018-09-21T00:22:07.387Z,64.10
2018-09-21T00:25:40.606Z,64.30
2018-09-21T00:29:16.956Z,64.50
2018-09-21T00:32:50.192Z,64.80
2018-09-21T00:36:23.424Z,65.00
2018-09-21T00:39:56.653Z,65.20
2018-09-21T00:43:29.872Z,65.40
2018-09-21T00:47:03.101Z,65.60
2018-09-21T00:50:36.374Z,65.80
2018-09-21T00:54:09.602Z,66.00
2018-09-21T00:57:42.819Z,66.30
2018-09-21T01:01:16.043Z,66.60
2018-09-21T01:04:49.284Z,66.70
2018-09-21T01:08:22.498Z,67.00
2018-09-21T01:11:55.767Z,67.30
2018-09-21T01:15:28.991Z,67.40
2018-09-21T01:19:02.427Z,67.60
2018-09-21T01:22:35.641Z,67.80
2018-09-21T01:26:08.861Z,68.00
2018-09-21T01:29:42.399Z,68.10
2018-09-21T01:33:15.628Z,68.30
2018-09-21T01:36:48.872Z,68.60
2018-09-21T01:40:22.106Z,68.80
2018-09-21T01:43:55.346Z,68.80
2018-09-21T01:47:28.594Z,69.00
2018-09-21T01:51:01.908Z,69.30
2018-09-21T01:54:35.140Z,69.50
2018-09-21T01:58:08.372Z,69.60
2018-09-21T02:01:41.612Z,69.80
2018-09-21T02:05:14.850Z,69.90
2018-09-21T02:08:48.080Z,70.00
2018-09-21T02:12:21.309Z,70.00
2018-09-21T02:15:54.548Z,70.20
2018-09-21T02:19:27.777Z,70.30
2018-09-21T02:23:01.012Z,70.40
2018-09-21T02:26:34.240Z,70.60
2018-09-21T02:30:07.484Z,70.80
2018-09-21T02:33:40.720Z,71.10
2018-09-21T02:37:13.944Z,71.40
2018-09-21T02:40:47.180Z,71.50
2018-09-21T02:44:20.396Z,71.80
2018-09-21T02:47:53.633Z,72.00
2018-09-21T02:51:26.873Z,72.20
2018-09-21T02:55:00.106Z,72.30
2018-09-21T02:58:33.329Z,72.60
2018-09-21T03:02:06.562Z,72.70
2018-09-21T03:05:39.797Z,72.90
2018-09-21T03:09:13.020Z,73.00
2018-09-21T03:12:46.311Z,73.10
2018-09-21T03:16:19.528Z,73.20
2018-09-21T03:19:52.754Z,73.40
2018-09-21T03:23:25.987Z,73.50
2018-09-21T03:26:59.216Z,73.70
2018-09-21T03:30:32.463Z,74.70
2018-09-21T03:34:05.707Z,73.80
2018-09-21T03:37:38.955Z,73.90
2018-09-21T03:41:12.205Z,74.10
2018-09-21T03:44:45.435Z,74.10
2018-09-21T03:48:18.671Z,74.20
2018-09-21T03:51:51.889Z,74.20
2018-09-21T03:55:25.112Z,74.40
2018-09-21T03:58:58.336Z,74.50
2018-09-21T04:02:31.577Z,74.60
2018-09-21T04:06:04.871Z,74.80
2018-09-21T04:09:38.087Z,75.00
2018-09-21T04:13:11.328Z,75.20
2018-09-21T04:16:44.557Z,75.40
2018-09-21T04:20:17.787Z,75.60
2018-09-21T04:23:51.039Z,75.80
2018-09-21T04:27:24.291Z,76.00
2018-09-21T04:30:57.540Z,76.20
2018-09-21T04:34:30.772Z,77.10
2018-09-21T04:38:04.026Z,76.30
2018-09-21T04:41:37.605Z,77.00
2018-09-21T04:45:10.815Z,76.70
2018-09-21T04:48:44.055Z,76.60
2018-09-21T04:52:17.316Z,76.70
2018-09-21T04:55:50.536Z,76.90
2018-09-21T04:59:23.776Z,77.10
2018-09-21T05:02:57.004Z,77.10
2018-09-21T05:06:30.236Z,77.30
2018-09-21T05:10:03.464Z,77.40
2018-09-21T05:13:36.740Z,77.60
2018-09-21T05:17:09.927Z,77.90
2018-09-21T05:20:43.168Z,78.00
2018-09-21T05:24:16.399Z,78.20
2018-09-21T05:27:49.653Z,78.30
2018-09-21T05:31:22.894Z,78.40
2018-09-21T05:34:56.128Z,78.40
2018-09-21T05:38:29.332Z,78.40
2018-09-21T05:42:02.564Z,78.50
2018-09-21T05:45:35.790Z,78.60
2018-09-21T05:49:09.299Z,78.70
2018-09-21T05:52:42.529Z,78.80
2018-09-21T05:56:15.762Z,78.80
2018-09-21T05:59:48.972Z,78.80
2018-09-21T06:03:22.212Z,78.80
2018-09-21T06:06:55.456Z,78.50
2018-09-21T06:10:28.673Z,78.60
2018-09-21T06:14:01.924Z,78.50
2018-09-21T06:17:35.176Z,78.70
2018-09-21T06:21:08.470Z,78.30
2018-09-21T06:24:41.656Z,78.10
2018-09-21T06:28:14.916Z,78.00
2018-09-21T06:31:48.193Z,78.50
2018-09-21T06:35:21.384Z,77.50
2018-09-21T06:38:54.645Z,77.20
2018-09-21T06:42:27.921Z,76.80
2018-09-21T06:46:01.102Z,76.50
2018-09-21T06:49:34.355Z,76.10
2018-09-21T06:53:07.596Z,75.90
2018-09-21T06:56:40.834Z,75.60
2018-09-21T07:00:14.056Z,75.40
2018-09-21T07:03:47.276Z,75.00
2018-09-21T07:07:20.516Z,74.60
2018-09-21T07:10:53.760Z,74.20
2018-09-21T07:14:27.005Z,73.70
2018-09-21T07:18:00.225Z,73.30
2018-09-21T07:21:33.477Z,72.80
2018-09-21T07:25:06.795Z,72.40
2018-09-21T07:28:40.075Z,72.00
2018-09-21T07:32:13.480Z,71.70
2018-09-21T07:35:47.200Z,71.30
2018-09-21T07:39:20.446Z,71.00
2018-09-21T07:42:53.715Z,70.60
2018-09-21T07:46:26.940Z,70.20
2018-09-21T07:50:00.176Z,69.80
2018-09-21T07:53:33.406Z,69.20
2018-09-21T07:57:06.696Z,69.50
2018-09-21T08:00:39.915Z,68.40
2018-09-21T08:04:13.140Z,68.00
2018-09-21T08:07:46.359Z,67.40
2018-09-21T08:11:19.567Z,67.00
2018-09-21T08:14:52.812Z,66.60
2018-09-21T08:18:26.044Z,66.20
2018-09-21T08:21:59.266Z,65.90
2018-09-21T08:25:32.494Z,64.80
2018-09-21T08:29:05.712Z,63.90
2018-09-21T08:32:38.949Z,63.10
2018-09-21T08:36:12.186Z,62.40
2018-09-21T08:39:45.399Z,61.80
2018-09-21T08:43:18.616Z,60.80
2018-09-21T08:46:51.836Z,59.60
2018-09-21T08:50:25.061Z,58.70
2018-09-21T08:53:58.287Z,57.60
2018-09-21T08:57:31.504Z,56.50
2018-09-21T09:01:04.773Z,55.70
2018-09-21T09:04:38.010Z,54.80
2018-09-21T09:08:11.228Z,54.10
2018-09-21T09:11:44.458Z,53.70
2018-09-21T09:15:17.679Z,52.90
2018-09-21T09:18:50.896Z,52.50
2018-09-21T09:22:24.128Z,52.10
2018-09-21T09:25:57.371Z,51.50
2018-09-21T09:29:30.626Z,51.00
2018-09-21T09:33:04.091Z,50.40
2018-09-21T09:36:37.309Z,50.10
2018-09-21T09:40:10.548Z,48.70
2018-09-21T09:43:43.773Z,47.50
2018-09-21T09:47:16.995Z,46.40
2018-09-21T09:50:50.232Z,45.70
2018-09-21T09:54:23.468Z,45.30
2018-09-21T09:57:56.688Z,44.80
2018-09-21T10:01:29.908Z,44.60
2018-09-21T10:05:03.308Z,44.30
2018-09-21T10:08:36.532Z,44.40
2018-09-21T10:12:09.751Z,43.70
2018-09-21T10:15:42.989Z,43.70
2018-09-21T10:19:16.199Z,44.00
2018-09-21T10:22:49.421Z,44.20
2018-09-21T10:26:22.637Z,43.90
2018-09-21T10:29:55.876Z,44.30
2018-09-21T10:33:29.258Z,43.40
2018-09-21T10:37:02.348Z,43.10
2018-09-21T10:40:35.588Z,43.00
2018-09-21T10:44:08.972Z,42.70
2018-09-21T10:47:42.204Z,41.90
2018-09-21T10:51:15.420Z,41.70
2018-09-21T10:54:48.676Z,41.20
2018-09-21T10:58:21.895Z,41.40
2018-09-21T11:01:55.112Z,41.10
2018-09-21T11:05:28.336Z,40.90
2018-09-21T11:09:01.558Z,40.60
2018-09-21T11:12:34.777Z,40.60
2018-09-21T11:16:08.860Z,40.60
2018-09-21T11:19:42.080Z,40.80
2018-09-21T11:23:15.300Z,40.80
2018-09-21T11:26:48.527Z,40.90
2018-09-21T11:30:21.759Z,40.90
2018-09-21T11:33:54.979Z,40.60
2018-09-21T11:37:28.212Z,40.40
2018-09-21T11:41:01.476Z,40.40
2018-09-21T11:44:34.668Z,40.50
2018-09-21T11:48:07.925Z,38.90
2018-09-21T11:51:41.160Z,38.30
2018-09-21T11:55:14.375Z,37.90
2018-09-21T11:58:47.912Z,36.90
2018-09-21T12:02:21.129Z,37.10
2018-09-21T12:05:54.357Z,36.60
2018-09-21T12:09:27.571Z,36.90
2018-09-21T12:13:00.783Z,37.10
2018-09-21T12:16:34.000Z,37.40
2018-09-21T12:20:07.228Z,37.20
2018-09-21T12:23:40.444Z,37.00
2018-09-21T12:27:13.708Z,36.90
2018-09-21T12:30:46.965Z,36.90
2018-09-21T12:34:20.171Z,36.80
2018-09-21T12:37:53.391Z,36.50
2018-09-21T12:41:26.607Z,35.30
2018-09-21T12:44:59.816Z,35.40
2018-09-21T12:48:33.041Z,35.80
2018-09-21T12:52:07.072Z,36.10
2018-09-21T12:55:40.280Z,35.90
2018-09-21T12:59:13.496Z,35.80
2018-09-21T13:02:46.809Z,36.60
2018-09-21T13:06:26.508Z,37.10
2018-09-21T13:09:59.732Z,36.80
2018-09-21T13:13:32.948Z,37.30
2018-09-21T13:17:06.164Z,37.40
2018-09-21T13:20:39.388Z,37.30
2018-09-21T13:24:12.621Z,37.30
2018-09-21T13:27:45.845Z,37.20
2018-09-21T13:31:19.083Z,37.40
2018-09-21T13:34:52.358Z,37.50
2018-09-21T13:38:25.596Z,37.80
2018-09-21T13:41:58.860Z,38.10
2018-09-21T13:45:32.073Z,38.40
2018-09-21T13:49:05.511Z,38.70
2018-09-21T13:52:38.736Z,38.80
2018-09-21T13:56:11.965Z,39.10
2018-09-21T13:59:45.196Z,39.50
2018-09-21T14:03:18.433Z,41.70
2018-09-21T14:06:51.660Z,42.50
2018-09-21T14:10:24.888Z,43.30
2018-09-21T14:13:58.112Z,44.00
2018-09-21T14:17:31.340Z,44.50
2018-09-21T14:21:04.563Z,45.00
2018-09-21T14:24:37.807Z,45.40
2018-09-21T14:28:11.021Z,45.70
2018-09-21T14:31:44.240Z,46.00
2018-09-21T14:35:17.507Z,46.00
2018-09-21T14:38:50.748Z,46.10
2018-09-21T14:42:23.993Z,46.50
2018-09-21T14:45:57.260Z,47.00
2018-09-21T14:49:30.489Z,47.20
2018-09-21T14:53:03.712Z,47.40
2018-09-21T14:56:36.933Z,47.70
2018-09-21T15:00:10.146Z,47.80
2018-09-21T15:03:43.381Z,47.90
2018-09-21T15:07:16.604Z,48.10
2018-09-21T15:10:49.819Z,48.30
2018-09-21T15:14:23.056Z,48.50
2018-09-21T15:17:56.295Z,49.10
2018-09-21T15:21:29.524Z,55.80
2018-09-21T15:25:02.776Z,61.00
2018-09-21T15:28:36.852Z,64.70
2018-09-21T15:32:10.101Z,69.80
2018-09-21T15:35:43.317Z,69.70
2018-09-21T15:39:16.595Z,70.00
2018-09-21T15:42:49.836Z,71.00
2018-09-21T15:46:23.577Z,70.40
2018-09-21T15:49:56.837Z,70.30
2018-09-21T15:53:30.068Z,70.80
2018-09-21T15:57:03.276Z,70.40
2018-09-21T16:00:36.865Z,70.40
2018-09-21T16:04:10.094Z,70.20
2018-09-21T16:07:43.308Z,70.90
2018-09-21T16:11:16.533Z,71.40
2018-09-21T16:14:49.769Z,74.80
2018-09-21T16:18:23.127Z,75.60
2018-09-21T16:21:56.365Z,75.80
2018-09-21T16:25:29.592Z,74.80
2018-09-21T16:29:02.848Z,75.60
2018-09-21T16:32:36.177Z,75.50
2018-09-21T16:36:09.436Z,72.40
2018-09-21T16:39:42.623Z,74.00
2018-09-21T16:43:15.853Z,76.50
2018-09-21T16:46:49.076Z,77.50
2018-09-21T16:50:22.285Z,77.40
2018-09-21T16:53:55.514Z,78.80
2018-09-21T16:57:28.781Z,80.20
2018-09-21T17:01:01.971Z,81.40
2018-09-21T17:04:35.239Z,82.40
2018-09-21T17:08:08.440Z,85.00
2018-09-21T17:11:41.655Z,85.00
2018-09-21T17:15:14.860Z,83.50
2018-09-21T17:18:48.060Z,81.70
2018-09-21T17:22:21.275Z,81.40
2018-09-21T17:25:54.630Z,80.60
2018-09-21T17:29:27.864Z,80.00
2018-09-21T17:33:01.089Z,80.50
2018-09-21T17:36:34.319Z,78.40
2018-09-21T17:40:07.536Z,78.20
2018-09-21T17:43:40.748Z,73.70
2018-09-21T17:47:13.976Z,71.50
2018-09-21T17:50:47.228Z,71.20
2018-09-21T17:54:20.452Z,71.60
2018-09-21T17:57:53.665Z,72.00
2018-09-21T18:01:27.260Z,73.20
2018-09-21T18:05:00.483Z,73.50
2018-09-21T18:08:33.703Z,74.10
2018-09-21T18:12:06.931Z,74.10
2018-09-21T18:15:40.144Z,74.20
2018-09-21T18:19:13.389Z,73.60
2018-09-21T18:22:46.662Z,73.40
2018-09-21T18:26:19.857Z,72.70
2018-09-21T18:29:53.083Z,73.40
2018-09-21T18:33:26.308Z,73.00
2018-09-21T18:36:59.842Z,72.80
2018-09-21T18:40:32.882Z,73.20
2018-09-21T18:44:06.756Z,73.00
2018-09-21T18:47:39.968Z,72.80
2018-09-21T18:51:13.207Z,73.30
2018-09-21T18:54:46.508Z,73.90
2018-09-21T18:58:19.741Z,72.50
2018-09-21T19:01:52.969Z,72.20
2018-09-21T19:05:26.241Z,72.40
2018-09-21T19:08:59.460Z,72.20
2018-09-21T19:12:32.695Z,71.80
2018-09-21T19:16:05.927Z,71.80
2018-09-21T19:19:39.177Z,71.80
2018-09-21T19:23:12.416Z,72.30
2018-09-21T19:26:45.636Z,72.60
2018-09-21T19:30:18.893Z,72.90
2018-09-21T19:33:52.132Z,72.70
2018-09-21T19:37:25.364Z,72.00
2018-09-21T19:40:58.581Z,71.90
2018-09-21T19:44:31.795Z,72.00
2018-09-21T19:48:05.408Z,71.80
2018-09-21T19:51:38.727Z,71.90
2018-09-21T19:55:11.959Z,72.00
2018-09-21T19:58:45.166Z,72.00
2018-09-21T20:02:18.395Z,72.20
2018-09-21T20:05:51.596Z,72.40
2018-09-21T20:09:24.825Z,72.40
2018-09-21T20:12:58.072Z,72.40
2018-09-21T20:16:31.341Z,72.40
2018-09-21T20:20:04.560Z,72.50
2018-09-21T20:23:38.048Z,72.40
2018-09-21T20:27:11.295Z,72.50
2018-09-21T20:30:49.935Z,72.80
2018-09-21T20:34:23.112Z,72.70
2018-09-21T20:37:56.340Z,73.00
2018-09-21T20:41:29.603Z,72.90
2018-09-21T20:45:02.839Z,73.00
2018-09-21T20:48:36.102Z,73.20
2018-09-21T20:52:09.335Z,73.60
2018-09-21T20:55:42.672Z,73.90
2018-09-21T20:59:15.945Z,74.10
2018-09-21T21:02:49.143Z,74.30
2018-09-21T21:06:22.384Z,74.70
2018-09-21T21:09:55.620Z,74.90
2018-09-21T21:13:28.885Z,74.90
2018-09-21T21:17:02.090Z,74.80
2018-09-21T21:20:35.334Z,74.50
2018-09-21T21:24:08.565Z,74.50
2018-09-21T21:27:41.776Z,74.30
2018-09-21T21:31:15.012Z,74.20
2018-09-21T21:34:48.220Z,74.30
2018-09-21T21:38:21.452Z,74.40
2018-09-21T21:41:54.675Z,74.50
2018-09-21T21:45:27.912Z,74.90
2018-09-21T21:49:01.124Z,75.00
2018-09-21T21:52:34.346Z,75.10
2018-09-21T21:56:07.572Z,75.20
2018-09-21T21:59:40.784Z,75.20
2018-09-21T22:03:13.999Z,75.40
2018-09-21T22:06:47.471Z,75.40
2018-09-21T22:10:20.708Z,75.60
2018-09-21T22:13:59.083Z,75.70
2018-09-21T22:17:32.320Z,75.70
2018-09-21T22:21:05.552Z,75.70
2018-09-21T22:24:38.753Z,75.70
2018-09-21T22:28:11.967Z,75.80
2018-09-21T22:31:45.192Z,75.90
2018-09-21T22:35:18.408Z,75.90
2018-09-21T22:38:51.617Z,75.80
2018-09-21T22:42:24.839Z,75.50
2018-09-21T22:45:58.057Z,75.20
2018-09-21T22:49:31.299Z,74.40
2018-09-21T22:53:04.519Z,74.00
2018-09-21T22:56:37.752Z,73.60
2018-09-21T23:00:10.975Z,73.50
2018-09-21T23:03:44.200Z,72.30
2018-09-21T23:07:17.419Z,71.20
2018-09-21T23:10:50.625Z,69.80
2018-09-21T23:14:23.852Z,69.50
2018-09-21T23:17:57.065Z,69.40
2018-09-21T23:21:30.302Z,69.30
2018-09-21T23:25:03.532Z,69.30
2018-09-21T23:28:36.786Z,69.50
2018-09-21T23:32:10.065Z,69.60
2018-09-21T23:35:43.281Z,69.90
2018-09-21T23:39:16.501Z,70.10
2018-09-21T23:42:49.708Z,70.40
2018-09-21T23:46:22.941Z,70.60
2018-09-21T23:49:56.153Z,70.00
2018-09-21T23:53:29.395Z,69.60
2018-09-21T23:57:02.609Z,69.10
